Richland, MS (39218)

11:29 PM CST on March 02, 2015 (GMT -0600)
APRSWXNET Richland MS US | Change Station
CLOSE
Current Station
Personal Weather Station
Location: Richland, MS
Elevation: 265 ft
Nearby Weather Stations
Active Advisory: Dense Fog Advisory

Elev 265 ft 32.22 °N, 90.16 °W | Updated 34 minutes ago

Fog
Fog
52 °F
Feels Like 52 °F
N
0
Wind Variable Wind from NNW
Gusts 0.0 mph

Today
High -- | Low -- °F
--% Chance of Precip.
Yesterday
High -- | Low -- °F
Precip. -- in
6:27 AM 5:58 PM
Waxing Gibbous, 94% visible
Pressure 30.21 in
Visibility 1.8 miles
Clouds Overcast 200 ft
Dew Point 51 °F
Humidity 98%
Rainfall 0.22 in
Snow Depth Not available.
UV 0 out of 12
Pollen 3.20 out of 12
Air Quality Not available.
Flu Activity Not available.
SPECI KJAN 030522Z AUTO 00000KT 1 3/4SM R16L/4000VP6000FT BR OVC002 12/11 A3021 RMK AO2 T01170111

More Conditions Fewer Conditions

Pressure 30.21 in
Visibility 1.8 miles
Clouds Overcast 200 ft
Dew Point 51 °F
Humidity 98%
Rainfall 0.22 in
Snow Depth Not available.
UV 0 out of 12
Pollen 3.20 out of 12
Air Quality Not available.
Flu Activity Not available.
SPECI KJAN 030522Z AUTO 00000KT 1 3/4SM R16L/4000VP6000FT BR OVC002 12/11 A3021 RMK AO2 T01170111

More Conditions Fewer Conditions

10-Day Weather Forecast

Almanac

Astronomy

Mar. 02, 2015 Rise Set
Actual Time
Civil Twilight
Nautical Twilight
Astronomical Twilight
Moon
Length of Visible Light
Length of Day
Tomorrow will be .
, % of the Moon is Illuminated

Today's Extremes

State Highs State Lows

Community

WunderPhotos

Upload Photos

1,802,066 photos uploaded!

WunderBlogs® & News

Nearby

Air Quality

  Air Quality AQ Index Pollutant
Not available.

Snow Depth

Station Depth Elevation

Earthquake Activity

City Distance Mag. Time & Date
Minimum magnitude displayed is 2.5.

Coastal Water Temperatures

Place Temperature

Nearby Weather Stations

Dense Fog Advisory
Statement as of 9:03 PM CST on March 02, 2015

... Dense fog advisory remains in effect until 9 am CST Tuesday...

A dense fog advisory remains in effect until 9 am CST Tuesday.

* Visibility... less than one-quarter of a mile

* impacts... reduced visibility will create hazardous travel.
Local fluctuations in visibility can be expected... .so
motorists may encounter rapid visibility reductions.

Precautionary/preparedness actions...

A dense fog advisory means visibilities will frequently be
reduced to less than one quarter mile. If driving... slow down...
use your headlights... and leave plenty of distance ahead of you.